Time;durP1;ratioP1;P1;durP2;ratioP2;P2;SDS_P1;SDS_P2;PMS_P1;PMS_P2;Temp;Humidity;BMP_temperature;BMP_pressure;BME280_temperature;BME280_humidity;BME280_pressure;Samples;Min_cycle;Max_cycle;Signal;HPM_P1;HPM_P2
2022/03/25 00:00:36;;;;;;;59.40;29.80;;;;;;;;;;5068788;28;20039;-71
2022/03/25 00:03:02;;;;;;;60.22;29.88;;;;;;;;;;5073044;28;20023;-72
2022/03/25 00:05:28;;;;;;;75.00;31.90;;;;;;;;;;5077920;28;20378;-72
2022/03/25 00:07:54;;;;;;;61.83;29.70;;;;;;;;;;5075721;28;20639;-71
2022/03/25 00:10:20;;;;;;;58.47;29.85;;;;;;;;;;5074341;28;20550;-71
2022/03/25 00:12:46;;;;;;;65.75;30.90;;;;;;;;;;5076687;28;20030;-71
2022/03/25 00:15:12;;;;;;;64.53;30.88;;;;;;;;;;5090586;28;20027;-71
2022/03/25 00:17:38;;;;;;;69.53;30.98;;;;;;;;;;5079882;28;20028;-71
2022/03/25 00:20:04;;;;;;;57.72;30.30;;;;;;;;;;5081360;28;20024;-71
2022/03/25 00:22:30;;;;;;;60.10;30.45;;;;;;;;;;5085645;28;20036;-72
2022/03/25 00:24:56;;;;;;;66.05;30.60;;;;;;;;;;5094069;28;20401;-71
2022/03/25 00:27:23;;;;;;;64.75;31.17;;;;;;;;;;5076365;28;20020;-71
2022/03/25 00:29:49;;;;;;;55.45;28.60;;;;;;;;;;5082514;28;20032;-71
2022/03/25 00:32:16;;;;;;;55.75;29.88;;;;;;;;;;5089265;28;20107;-71
2022/03/25 00:34:42;;;;;;;71.53;29.40;;;;;;;;;;5085231;28;20027;-71
2022/03/25 00:37:08;;;;;;;64.88;29.58;;;;;;;;;;5088137;28;20463;-70
2022/03/25 00:39:34;;;;;;;53.95;29.42;;;;;;;;;;5085826;28;20027;-71
2022/03/25 00:42:00;;;;;;;53.60;27.77;;;;;;;;;;5088513;28;20491;-71
2022/03/25 00:44:26;;;;;;;57.50;28.80;;;;;;;;;;5089974;28;20035;-71
2022/03/25 00:46:52;;;;;;;54.75;28.95;;;;;;;;;;5076759;28;20471;-71
2022/03/25 00:49:18;;;;;;;55.05;27.98;;;;;;;;;;5079680;28;20689;-71
2022/03/25 00:51:44;;;;;;;63.85;29.00;;;;;;;;;;5080751;28;20217;-71
2022/03/25 00:54:10;;;;;;;54.80;27.55;;;;;;;;;;5087742;28;20545;-70
2022/03/25 00:56:36;;;;;;;59.60;27.27;;;;;;;;;;5084262;28;20032;-71
2022/03/25 00:59:02;;;;;;;53.50;26.27;;;;;;;;;;5072355;28;20016;-71
2022/03/25 01:01:28;;;;;;;60.00;27.35;;;;;;;;;;5088541;28;20119;-71
2022/03/25 01:03:54;;;;;;;54.22;26.05;;;;;;;;;;5069657;28;20020;-71
2022/03/25 01:06:21;;;;;;;54.25;27.20;;;;;;;;;;5083152;28;20048;-72
2022/03/25 01:08:47;;;;;;;55.40;26.92;;;;;;;;;;5085529;28;20077;-70
2022/03/25 01:11:13;;;;;;;52.50;25.95;;;;;;;;;;5080689;28;20228;-71
2022/03/25 01:13:39;;;;;;;48.35;25.98;;;;;;;;;;5077114;28;20029;-71
2022/03/25 01:16:06;;;;;;;53.58;26.55;;;;;;;;;;5082944;28;20039;-71
2022/03/25 01:18:32;;;;;;;55.97;27.75;;;;;;;;;;5069674;28;20054;-71
2022/03/25 01:20:58;;;;;;;55.22;26.10;;;;;;;;;;5081071;28;20024;-71
2022/03/25 01:23:25;;;;;;;54.72;26.08;;;;;;;;;;5079547;28;20032;-72
2022/03/25 01:25:51;;;;;;;52.80;27.50;;;;;;;;;;5079376;28;20024;-71
2022/03/25 01:28:17;;;;;;;53.88;26.77;;;;;;;;;;5087941;28;20024;-71
2022/03/25 01:30:43;;;;;;;55.67;27.25;;;;;;;;;;5083209;28;20051;-71
2022/03/25 01:33:09;;;;;;;57.05;26.40;;;;;;;;;;5081855;28;20039;-70
2022/03/25 01:35:35;;;;;;;56.45;26.15;;;;;;;;;;5078510;28;20035;-71
2022/03/25 01:38:01;;;;;;;53.15;26.75;;;;;;;;;;5088767;28;20466;-71
2022/03/25 01:40:27;;;;;;;52.85;25.83;;;;;;;;;;5081390;28;20035;-71
2022/03/25 01:42:53;;;;;;;53.30;26.00;;;;;;;;;;5084174;28;20092;-70
2022/03/25 01:45:29;;;;;;;49.40;25.67;;;;;;;;;;5088093;28;20032;-70
2022/03/25 01:47:55;;;;;;;50.67;25.65;;;;;;;;;;5089198;28;20028;-70
2022/03/25 01:50:22;;;;;;;53.28;26.45;;;;;;;;;;5079894;28;20013;-69
2022/03/25 01:52:50;;;;;;;52.10;25.15;;;;;;;;;;5082765;28;20466;-69
2022/03/25 01:55:17;;;;;;;62.88;26.25;;;;;;;;;;5086459;28;20050;-70
2022/03/25 01:57:44;;;;;;;53.63;26.25;;;;;;;;;;5084560;28;20020;-69
2022/03/25 02:00:11;;;;;;;54.92;25.58;;;;;;;;;;5087485;28;20032;-70
2022/03/25 02:02:38;;;;;;;53.00;26.05;;;;;;;;;;5088748;28;20032;-70
2022/03/25 02:05:04;;;;;;;57.70;27.58;;;;;;;;;;5086965;28;20016;-69
2022/03/25 02:07:30;;;;;;;56.60;26.58;;;;;;;;;;5091483;28;20035;-69
2022/03/25 02:09:57;;;;;;;54.35;26.58;;;;;;;;;;5092375;28;20032;-70
2022/03/25 02:12:23;;;;;;;53.67;26.08;;;;;;;;;;5082933;28;20029;-69
2022/03/25 02:14:49;;;;;;;53.38;26.58;;;;;;;;;;5087003;28;20039;-70
2022/03/25 02:17:15;;;;;;;54.00;26.83;;;;;;;;;;5090761;28;20360;-70
2022/03/25 02:19:41;;;;;;;61.83;27.27;;;;;;;;;;5089456;28;20043;-69
2022/03/25 02:22:10;;;;;;;51.38;25.67;;;;;;;;;;5092747;28;20112;-69
2022/03/25 02:24:36;;;;;;;60.33;27.25;;;;;;;;;;5082298;28;20040;-69
2022/03/25 02:27:03;;;;;;;57.13;25.92;;;;;;;;;;5088876;28;20023;-69
2022/03/25 02:29:28;;;;;;;53.90;25.60;;;;;;;;;;5088868;28;20085;-69
2022/03/25 02:31:54;;;;;;;52.03;26.15;;;;;;;;;;5084457;28;20028;-69
2022/03/25 02:34:20;;;;;;;48.40;25.15;;;;;;;;;;5087206;28;20024;-69
2022/03/25 02:36:47;;;;;;;53.45;26.00;;;;;;;;;;5092516;28;20070;-69
2022/03/25 02:39:15;;;;;;;56.20;25.48;;;;;;;;;;5083827;28;20111;-70
2022/03/25 02:41:41;;;;;;;47.15;23.92;;;;;;;;;;5094426;28;20056;-70
2022/03/25 02:44:08;;;;;;;50.78;25.45;;;;;;;;;;5075550;28;20032;-70
2022/03/25 02:46:34;;;;;;;51.38;25.33;;;;;;;;;;5086019;28;20039;-70
2022/03/25 02:49:01;;;;;;;47.05;24.65;;;;;;;;;;5082781;28;20028;-69
2022/03/25 02:51:27;;;;;;;49.83;26.05;;;;;;;;;;5084435;28;20405;-70
2022/03/25 02:53:53;;;;;;;43.17;23.40;;;;;;;;;;5086260;28;20028;-70
2022/03/25 02:56:19;;;;;;;44.92;23.52;;;;;;;;;;5091903;28;20077;-70
2022/03/25 02:58:45;;;;;;;44.75;24.30;;;;;;;;;;5091490;28;20099;-70
2022/03/25 03:01:12;;;;;;;48.22;24.25;;;;;;;;;;5092155;28;20032;-70
2022/03/25 03:03:38;;;;;;;45.80;24.58;;;;;;;;;;5087595;28;20025;-70
2022/03/25 03:06:05;;;;;;;47.72;24.20;;;;;;;;;;5075314;28;20020;-70
2022/03/25 03:08:31;;;;;;;53.88;24.00;;;;;;;;;;5090297;28;20044;-70
2022/03/25 03:10:57;;;;;;;47.03;24.63;;;;;;;;;;5091507;28;20386;-70
2022/03/25 03:13:23;;;;;;;45.50;22.85;;;;;;;;;;5080704;28;20028;-70
2022/03/25 03:15:50;;;;;;;50.35;24.05;;;;;;;;;;5087056;28;20547;-71
2022/03/25 03:18:16;;;;;;;45.40;23.65;;;;;;;;;;5091643;28;20404;-70
2022/03/25 03:20:42;;;;;;;46.88;22.75;;;;;;;;;;5072669;28;20119;-70
2022/03/25 03:23:08;;;;;;;44.33;22.25;;;;;;;;;;5081203;28;20024;-70
2022/03/25 03:25:35;;;;;;;52.95;23.35;;;;;;;;;;5087383;28;20035;-70
2022/03/25 03:28:01;;;;;;;46.63;23.60;;;;;;;;;;5090330;28;20020;-70
2022/03/25 03:30:27;;;;;;;43.08;23.25;;;;;;;;;;5086621;28;20111;-70
2022/03/25 03:32:57;;;;;;;43.70;22.17;;;;;;;;;;5084751;28;20032;-69
2022/03/25 03:35:24;;;;;;;40.67;21.90;;;;;;;;;;5080432;28;20093;-70
2022/03/25 03:37:50;;;;;;;41.22;21.77;;;;;;;;;;5091314;28;20116;-69
2022/03/25 03:40:16;;;;;;;45.65;22.48;;;;;;;;;;5089262;28;20039;-70
2022/03/25 03:42:42;;;;;;;43.38;22.33;;;;;;;;;;5081458;28;20027;-70
2022/03/25 03:45:08;;;;;;;47.20;22.02;;;;;;;;;;5084929;28;20020;-70
2022/03/25 03:47:35;;;;;;;46.88;23.05;;;;;;;;;;5080548;28;20020;-70
2022/03/25 03:50:01;;;;;;;43.33;21.38;;;;;;;;;;5090128;28;20031;-69
2022/03/25 03:52:27;;;;;;;42.97;23.08;;;;;;;;;;5083445;28;20035;-70
2022/03/25 03:54:52;;;;;;;46.38;23.17;;;;;;;;;;5090167;28;20024;-69
2022/03/25 03:57:18;;;;;;;47.83;22.30;;;;;;;;;;5089147;28;20028;-69
2022/03/25 03:59:44;;;;;;;43.67;22.25;;;;;;;;;;5083578;28;20028;-70
2022/03/25 04:02:10;;;;;;;38.58;22.80;;;;;;;;;;5080432;28;20550;-70
2022/03/25 04:04:36;;;;;;;43.05;22.52;;;;;;;;;;5086784;28;20039;-70
2022/03/25 04:07:02;;;;;;;36.08;22.38;;;;;;;;;;5081746;28;20016;-70
2022/03/25 04:09:28;;;;;;;46.17;23.42;;;;;;;;;;5089539;28;20052;-70
2022/03/25 04:11:55;;;;;;;39.42;21.38;;;;;;;;;;5082379;28;20038;-70
2022/03/25 04:14:21;;;;;;;41.50;22.40;;;;;;;;;;5084945;28;20050;-70
2022/03/25 04:16:47;;;;;;;45.38;22.55;;;;;;;;;;5088691;28;20764;-70
2022/03/25 04:19:13;;;;;;;38.88;22.17;;;;;;;;;;5090512;28;20024;-70
2022/03/25 04:21:39;;;;;;;44.45;22.38;;;;;;;;;;5089377;28;20470;-70
2022/03/25 04:24:05;;;;;;;41.03;21.73;;;;;;;;;;5076841;28;20023;-70
2022/03/25 04:26:32;;;;;;;42.10;22.35;;;;;;;;;;5088899;28;20269;-70
2022/03/25 04:28:58;;;;;;;42.35;21.42;;;;;;;;;;5089352;28;20032;-70
2022/03/25 04:31:23;;;;;;;38.60;20.92;;;;;;;;;;5087400;28;20077;-70
2022/03/25 04:33:49;;;;;;;40.45;21.17;;;;;;;;;;5081781;28;20138;-70
2022/03/25 04:36:15;;;;;;;38.53;22.13;;;;;;;;;;5089074;28;20038;-70
2022/03/25 04:38:42;;;;;;;36.63;21.20;;;;;;;;;;5089525;28;20630;-70
2022/03/25 04:41:11;;;;;;;39.05;20.88;;;;;;;;;;5079081;28;20454;-70
2022/03/25 04:43:37;;;;;;;42.20;21.20;;;;;;;;;;5086773;28;20023;-70
2022/03/25 04:46:04;;;;;;;41.20;20.95;;;;;;;;;;5081395;28;20024;-70
2022/03/25 04:48:30;;;;;;;40.22;21.38;;;;;;;;;;5086270;28;20070;-70
2022/03/25 04:50:56;;;;;;;38.05;20.27;;;;;;;;;;5078933;28;20028;-70
2022/03/25 04:53:22;;;;;;;40.15;20.83;;;;;;;;;;5087819;28;20028;-70
2022/03/25 04:55:48;;;;;;;41.20;21.10;;;;;;;;;;5079396;28;20043;-70
2022/03/25 04:58:14;;;;;;;36.15;19.92;;;;;;;;;;5088406;28;20031;-70
2022/03/25 05:00:40;;;;;;;42.28;21.33;;;;;;;;;;5087900;28;20036;-70
2022/03/25 05:03:06;;;;;;;40.13;21.13;;;;;;;;;;5089642;28;20103;-70
2022/03/25 05:05:32;;;;;;;39.63;20.20;;;;;;;;;;5086876;28;20375;-70
2022/03/25 05:07:58;;;;;;;40.92;19.98;;;;;;;;;;5089392;28;20040;-70
2022/03/25 05:10:24;;;;;;;38.35;20.63;;;;;;;;;;5084365;28;20419;-70
2022/03/25 05:12:50;;;;;;;38.05;19.92;;;;;;;;;;5078939;28;20859;-70
2022/03/25 05:15:16;;;;;;;40.45;20.60;;;;;;;;;;5073576;28;20016;-70
2022/03/25 05:17:51;;;;;;;37.58;20.83;;;;;;;;;;5089687;28;20535;-70
2022/03/25 05:20:17;;;;;;;38.83;20.23;;;;;;;;;;5073427;28;20029;-70
2022/03/25 05:22:43;;;;;;;36.95;20.20;;;;;;;;;;5082835;28;20036;-70
2022/03/25 05:25:09;;;;;;;37.25;19.83;;;;;;;;;;5069336;28;20021;-70
2022/03/25 05:27:49;;;;;;;37.72;20.85;;;;;;;;;;5076011;28;20032;-70
2022/03/25 05:30:15;;;;;;;37.67;20.85;;;;;;;;;;5089257;28;20055;-70
2022/03/25 05:32:42;;;;;;;36.40;20.60;;;;;;;;;;5088614;28;20089;-70
2022/03/25 05:35:09;;;;;;;39.03;20.45;;;;;;;;;;5087540;28;20383;-70
2022/03/25 05:37:38;;;;;;;39.47;20.27;;;;;;;;;;5074274;28;20094;-70
2022/03/25 05:40:05;;;;;;;38.53;21.17;;;;;;;;;;5071111;28;20029;-70
2022/03/25 05:42:31;;;;;;;34.88;20.35;;;;;;;;;;5077499;28;20070;-71
2022/03/25 05:44:57;;;;;;;40.00;20.88;;;;;;;;;;5088025;28;20508;-71
2022/03/25 05:47:23;;;;;;;37.92;21.30;;;;;;;;;;5086691;28;20027;-71
2022/03/25 05:49:49;;;;;;;38.53;20.95;;;;;;;;;;5073945;28;20028;-71
2022/03/25 05:52:14;;;;;;;36.17;20.10;;;;;;;;;;5077368;28;20028;-71
2022/03/25 05:54:40;;;;;;;40.50;20.15;;;;;;;;;;5087927;28;20145;-71
2022/03/25 05:57:07;;;;;;;43.28;21.33;;;;;;;;;;5070383;28;20032;-71
2022/03/25 05:59:39;;;;;;;36.47;20.70;;;;;;;;;;5081984;28;20446;-71
2022/03/25 06:02:11;;;;;;;37.55;20.52;;;;;;;;;;5082501;28;20502;-71
2022/03/25 06:04:37;;;;;;;39.83;20.63;;;;;;;;;;5085977;28;20043;-74
2022/03/25 06:07:03;;;;;;;38.38;20.90;;;;;;;;;;5087090;28;20025;-72
2022/03/25 06:09:29;;;;;;;43.83;21.70;;;;;;;;;;5076184;28;20059;-72
2022/03/25 06:11:56;;;;;;;37.03;21.05;;;;;;;;;;5072232;28;21982;-74
2022/03/25 06:14:22;;;;;;;37.90;21.05;;;;;;;;;;5074594;28;20107;-71
2022/03/25 06:16:48;;;;;;;41.78;20.98;;;;;;;;;;5089436;28;20107;-72
2022/03/25 06:19:14;;;;;;;42.15;21.40;;;;;;;;;;5070336;28;20025;-72
2022/03/25 06:21:40;;;;;;;42.40;20.50;;;;;;;;;;5072145;28;20510;-69
2022/03/25 06:24:07;;;;;;;44.10;20.95;;;;;;;;;;5075761;28;20238;-69
2022/03/25 06:26:33;;;;;;;40.15;21.00;;;;;;;;;;5079329;28;20431;-70
2022/03/25 06:28:59;;;;;;;37.63;20.77;;;;;;;;;;5073708;28;20111;-77
2022/03/25 06:31:25;;;;;;;42.00;21.45;;;;;;;;;;5082851;28;20020;-77
2022/03/25 06:33:51;;;;;;;37.92;20.85;;;;;;;;;;5072777;28;20375;-76
2022/03/25 06:36:17;;;;;;;35.30;21.15;;;;;;;;;;5080285;28;20032;-76
2022/03/25 06:38:43;;;;;;;47.65;20.52;;;;;;;;;;5086720;28;20035;-78
2022/03/25 06:41:10;;;;;;;39.22;22.27;;;;;;;;;;5083881;28;20020;-76
2022/03/25 06:43:36;;;;;;;47.70;21.73;;;;;;;;;;5078716;28;20026;-75
2022/03/25 06:46:04;;;;;;;37.72;21.48;;;;;;;;;;5073952;28;20070;-76
2022/03/25 06:48:30;;;;;;;40.20;20.95;;;;;;;;;;5079270;28;20104;-77
2022/03/25 06:50:56;;;;;;;44.70;21.42;;;;;;;;;;5070413;28;20029;-76
2022/03/25 06:53:22;;;;;;;41.85;21.35;;;;;;;;;;5075755;28;20516;-75
2022/03/25 06:55:48;;;;;;;44.92;22.15;;;;;;;;;;5082554;28;20039;-76
2022/03/25 06:58:14;;;;;;;40.97;21.92;;;;;;;;;;5088810;28;20425;-76
2022/03/25 07:00:40;;;;;;;41.85;21.30;;;;;;;;;;5073029;28;20024;-76
2022/03/25 07:03:06;;;;;;;43.70;21.42;;;;;;;;;;5067484;28;20031;-76
2022/03/25 07:05:32;;;;;;;37.35;21.55;;;;;;;;;;5069967;28;20085;-75
2022/03/25 07:07:58;;;;;;;42.00;21.73;;;;;;;;;;5069744;28;20044;-74
2022/03/25 07:10:26;;;;;;;42.15;22.13;;;;;;;;;;5081296;28;20051;-74
2022/03/25 07:12:52;;;;;;;44.05;21.88;;;;;;;;;;5074839;28;20149;-74
2022/03/25 07:15:18;;;;;;;46.17;22.42;;;;;;;;;;5076686;28;20020;-73
2022/03/25 07:17:44;;;;;;;49.60;22.08;;;;;;;;;;5078882;28;20020;-75
2022/03/25 07:20:13;;;;;;;36.40;19.75;;;;;;;;;;5075280;28;20068;-75
2022/03/25 07:22:40;;;;;;;40.10;20.38;;;;;;;;;;5077328;28;20486;-76
2022/03/25 07:25:06;;;;;;;42.65;20.02;;;;;;;;;;5087159;28;20085;-75
2022/03/25 07:27:32;;;;;;;42.15;19.90;;;;;;;;;;5079557;28;20020;-73
2022/03/25 07:29:58;;;;;;;41.60;20.23;;;;;;;;;;5071000;28;20111;-73
2022/03/25 07:32:24;;;;;;;42.33;20.58;;;;;;;;;;5079540;28;20032;-73
2022/03/25 07:34:51;;;;;;;43.30;20.08;;;;;;;;;;5081573;28;20578;-74
2022/03/25 07:37:17;;;;;;;43.20;20.75;;;;;;;;;;5077375;28;20487;-74
2022/03/25 07:39:44;;;;;;;45.08;21.10;;;;;;;;;;5075244;28;20063;-74
2022/03/25 07:42:19;;;;;;;40.97;19.83;;;;;;;;;;5074515;28;20029;-74
2022/03/25 07:44:46;;;;;;;45.22;20.48;;;;;;;;;;5068757;28;20482;-73
2022/03/25 07:47:13;;;;;;;38.58;20.17;;;;;;;;;;5079018;28;20020;-74
2022/03/25 07:49:40;;;;;;;48.55;19.65;;;;;;;;;;5077903;28;20031;-75
2022/03/25 07:52:06;;;;;;;50.47;21.67;;;;;;;;;;5078382;28;20032;-75
2022/03/25 07:54:32;;;;;;;52.25;22.90;;;;;;;;;;5086261;28;20076;-75
2022/03/25 07:56:58;;;;;;;45.22;20.70;;;;;;;;;;5077426;28;20032;-75
2022/03/25 07:59:28;;;;;;;46.38;20.95;;;;;;;;;;5071393;28;20023;-71
2022/03/25 08:01:54;;;;;;;46.22;20.90;;;;;;;;;;5081267;28;20027;-71
2022/03/25 08:04:21;;;;;;;45.38;20.88;;;;;;;;;;5080492;28;20544;-72
2022/03/25 08:06:48;;;;;;;46.28;21.45;;;;;;;;;;5082095;28;20028;-71
2022/03/25 08:09:13;;;;;;;45.40;20.80;;;;;;;;;;5083252;28;20032;-72
2022/03/25 08:11:39;;;;;;;48.42;20.70;;;;;;;;;;5071254;28;20043;-72
2022/03/25 08:14:06;;;;;;;44.97;20.52;;;;;;;;;;5087561;28;20081;-72
2022/03/25 08:16:33;;;;;;;46.90;19.75;;;;;;;;;;5089249;28;20032;-71
2022/03/25 08:18:58;;;;;;;54.63;22.70;;;;;;;;;;5079142;28;20024;-72
2022/03/25 08:21:25;;;;;;;48.53;21.75;;;;;;;;;;5086518;28;20025;-71
2022/03/25 08:29:22;;;;;;;51.72;21.40;;;;;;;;;;5078137;28;20039;-71
2022/03/25 08:31:47;;;;;;;57.42;22.17;;;;;;;;;;5078689;28;20106;-71
2022/03/25 08:34:15;;;;;;;52.72;23.52;;;;;;;;;;5090852;28;20158;-71
2022/03/25 08:36:41;;;;;;;48.50;22.98;;;;;;;;;;5069790;28;20791;-70
2022/03/25 08:39:07;;;;;;;55.10;22.17;;;;;;;;;;5078450;28;20047;-71
2022/03/25 08:41:34;;;;;;;48.45;23.10;;;;;;;;;;5079015;28;20020;-71
2022/03/25 08:43:59;;;;;;;53.92;22.92;;;;;;;;;;5082565;28;20111;-74
2022/03/25 08:46:25;;;;;;;59.72;26.38;;;;;;;;;;5079565;28;20111;-73
2022/03/25 08:48:52;;;;;;;50.67;23.80;;;;;;;;;;5074111;28;20085;-74
2022/03/25 08:51:18;;;;;;;43.92;24.05;;;;;;;;;;5087177;28;20032;-72
2022/03/25 08:53:45;;;;;;;45.30;23.80;;;;;;;;;;5089403;28;20674;-77
2022/03/25 08:56:12;;;;;;;47.78;24.40;;;;;;;;;;5090126;28;20039;-71
2022/03/25 08:58:38;;;;;;;51.20;24.88;;;;;;;;;;5076963;28;20047;-70
2022/03/25 09:01:04;;;;;;;48.58;23.67;;;;;;;;;;5082010;28;20478;-70
2022/03/25 09:03:30;;;;;;;48.17;23.17;;;;;;;;;;5076344;28;20463;-70
2022/03/25 09:05:56;;;;;;;47.38;23.10;;;;;;;;;;5069047;28;20029;-70
2022/03/25 09:08:22;;;;;;;43.75;23.85;;;;;;;;;;5082113;28;20051;-68
2022/03/25 09:10:48;;;;;;;52.13;25.02;;;;;;;;;;5078963;28;20020;-67
2022/03/25 09:13:17;;;;;;;49.45;24.70;;;;;;;;;;5071198;28;20028;-69
2022/03/25 09:15:44;;;;;;;47.03;23.48;;;;;;;;;;5080950;28;20081;-69
2022/03/25 09:18:10;;;;;;;48.78;25.25;;;;;;;;;;5081474;28;20202;-69
2022/03/25 09:20:36;;;;;;;54.95;25.08;;;;;;;;;;5071081;28;20031;-71
2022/03/25 09:23:02;;;;;;;50.15;25.08;;;;;;;;;;5080190;28;20122;-70
2022/03/25 09:25:30;;;;;;;51.97;25.92;;;;;;;;;;5074731;28;20119;-68
2022/03/25 09:27:56;;;;;;;47.47;23.70;;;;;;;;;;5074442;28;20028;-69
2022/03/25 09:30:22;;;;;;;51.20;24.45;;;;;;;;;;5079464;28;20062;-69
2022/03/25 09:32:48;;;;;;;42.63;24.83;;;;;;;;;;5075446;28;20088;-69
2022/03/25 09:35:14;;;;;;;53.78;26.95;;;;;;;;;;5076882;28;20421;-69
2022/03/25 09:37:40;;;;;;;48.33;25.02;;;;;;;;;;5076152;28;20035;-69
2022/03/25 09:40:08;;;;;;;46.72;25.30;;;;;;;;;;5079357;28;20028;-67
2022/03/25 09:42:34;;;;;;;47.20;25.35;;;;;;;;;;5076692;28;20767;-67
2022/03/25 09:45:01;;;;;;;49.03;24.23;;;;;;;;;;5074568;28;20088;-66
2022/03/25 09:47:27;;;;;;;46.45;24.58;;;;;;;;;;5082650;28;20024;-67
2022/03/25 09:49:53;;;;;;;50.20;25.15;;;;;;;;;;5079379;28;20028;-67
2022/03/25 09:52:19;;;;;;;52.28;24.63;;;;;;;;;;5083981;28;20050;-66
2022/03/25 09:54:45;;;;;;;48.40;24.95;;;;;;;;;;5072155;28;20027;-69
2022/03/25 09:57:11;;;;;;;53.50;25.58;;;;;;;;;;5070536;28;20028;-69
2022/03/25 09:59:37;;;;;;;54.72;25.98;;;;;;;;;;5072811;28;20035;-67
2022/03/25 10:02:04;;;;;;;46.63;26.17;;;;;;;;;;5073560;28;20032;-80
2022/03/25 10:04:39;;;;;;;51.45;25.90;;;;;;;;;;5078756;28;20024;-70
2022/03/25 10:07:25;;;;;;;51.13;28.58;;;;;;;;;;5080027;28;20566;-72
2022/03/25 10:10:06;;;;;;;56.97;27.15;;;;;;;;;;5077015;28;20044;-71
2022/03/25 10:12:32;;;;;;;48.88;27.85;;;;;;;;;;5076195;28;20144;-71
2022/03/25 10:15:13;;;;;;;57.28;28.80;;;;;;;;;;5079932;28;20111;-72
2022/03/25 10:17:46;;;;;;;54.73;28.67;;;;;;;;;;5075753;28;20117;-69
2022/03/25 10:20:12;;;;;;;55.40;26.50;;;;;;;;;;5070806;28;20354;-69
2022/03/25 10:22:38;;;;;;;50.38;29.48;;;;;;;;;;5071318;28;20036;-68
2022/03/25 10:25:09;;;;;;;59.53;30.17;;;;;;;;;;5078439;28;20536;-69
2022/03/25 10:27:36;;;;;;;51.88;29.13;;;;;;;;;;5081334;28;20028;-69
2022/03/25 10:30:08;;;;;;;52.80;30.65;;;;;;;;;;5085870;28;20196;-68
2022/03/25 10:32:39;;;;;;;56.85;29.23;;;;;;;;;;5082692;28;20477;-69
2022/03/25 10:35:06;;;;;;;62.00;29.85;;;;;;;;;;5085425;28;20252;-69
2022/03/25 10:37:32;;;;;;;55.90;30.80;;;;;;;;;;5082751;28;20610;-68
2022/03/25 10:39:58;;;;;;;56.78;28.27;;;;;;;;;;5083688;28;20032;-68
2022/03/25 10:42:24;;;;;;;46.30;27.27;;;;;;;;;;5081098;28;20039;-69
2022/03/25 10:44:50;;;;;;;46.50;27.88;;;;;;;;;;5084459;28;20020;-68
2022/03/25 10:47:16;;;;;;;51.22;28.70;;;;;;;;;;5080021;28;20659;-67
2022/03/25 10:49:46;;;;;;;44.75;25.90;;;;;;;;;;5079873;28;20066;-68
2022/03/25 10:52:24;;;;;;;40.00;24.55;;;;;;;;;;5076790;28;20127;-67
2022/03/25 10:54:50;;;;;;;46.42;24.98;;;;;;;;;;5083581;28;20363;-70
2022/03/25 10:57:17;;;;;;;44.17;24.50;;;;;;;;;;5082222;28;20024;-68
2022/03/25 10:59:44;;;;;;;51.90;24.85;;;;;;;;;;5081267;28;20163;-68
2022/03/25 11:02:11;;;;;;;48.00;24.83;;;;;;;;;;5081276;28;20024;-68
2022/03/25 11:04:38;;;;;;;41.55;22.77;;;;;;;;;;5082503;28;20069;-68
2022/03/25 11:07:04;;;;;;;43.63;20.75;;;;;;;;;;5082636;28;20024;-67
2022/03/25 11:09:31;;;;;;;47.25;22.95;;;;;;;;;;5082100;28;20078;-68
2022/03/25 11:11:58;;;;;;;40.67;21.83;;;;;;;;;;5080266;28;20032;-67
2022/03/25 11:14:24;;;;;;;33.22;19.45;;;;;;;;;;5081468;28;20057;-68
2022/03/25 11:16:57;;;;;;;36.97;19.58;;;;;;;;;;5077815;28;20024;-67
2022/03/25 11:19:23;;;;;;;38.33;19.27;;;;;;;;;;5077001;28;20429;-68
2022/03/25 11:21:50;;;;;;;30.30;16.33;;;;;;;;;;5075594;28;20028;-68
2022/03/25 11:24:24;;;;;;;32.97;13.82;;;;;;;;;;5077813;28;20028;-69
2022/03/25 11:26:51;;;;;;;27.83;13.35;;;;;;;;;;5075844;28;20020;-69
2022/03/25 11:29:20;;;;;;;29.02;14.65;;;;;;;;;;5075283;28;20028;-68
2022/03/25 11:32:02;;;;;;;34.40;17.15;;;;;;;;;;5076631;28;20024;-68
2022/03/25 11:34:27;;;;;;;34.05;16.77;;;;;;;;;;5068170;28;20027;-68
2022/03/25 11:37:13;;;;;;;28.30;15.38;;;;;;;;;;5070570;28;20036;-69
2022/03/25 11:39:39;;;;;;;30.00;15.63;;;;;;;;;;5079418;28;20055;-68
2022/03/25 11:42:06;;;;;;;29.98;15.95;;;;;;;;;;5077167;28;20124;-68
2022/03/25 11:44:33;;;;;;;25.10;15.68;;;;;;;;;;5072199;28;20035;-68
2022/03/25 11:46:59;;;;;;;33.97;17.33;;;;;;;;;;5075707;28;20027;-69
2022/03/25 11:49:26;;;;;;;33.38;17.00;;;;;;;;;;5074413;28;20173;-68
2022/03/25 11:51:53;;;;;;;30.02;16.35;;;;;;;;;;5084642;28;20036;-68
2022/03/25 11:54:35;;;;;;;34.63;18.27;;;;;;;;;;5075418;28;20043;-69
2022/03/25 11:57:02;;;;;;;37.95;17.52;;;;;;;;;;5078266;28;20097;-68
2022/03/25 11:59:46;;;;;;;29.10;16.55;;;;;;;;;;5073054;28;20032;-68
2022/03/25 12:02:44;;;;;;;30.63;17.35;;;;;;;;;;5079711;28;20029;-75
2022/03/25 12:05:25;;;;;;;31.60;17.10;;;;;;;;;;5055653;28;20128;-74
2022/03/25 12:08:10;;;;;;;29.88;17.42;;;;;;;;;;5081189;28;20046;-72
2022/03/25 12:10:46;;;;;;;28.10;16.85;;;;;;;;;;5081701;28;20028;-72
2022/03/25 12:13:12;;;;;;;29.20;16.58;;;;;;;;;;5085529;28;20024;-73
2022/03/25 12:15:41;;;;;;;36.10;17.10;;;;;;;;;;5086742;28;20083;-73
2022/03/25 12:18:26;;;;;;;29.65;17.25;;;;;;;;;;5086109;28;20020;-72
2022/03/25 12:20:52;;;;;;;30.40;17.00;;;;;;;;;;5084899;28;20027;-72
2022/03/25 12:23:18;;;;;;;27.17;16.50;;;;;;;;;;5081051;28;20025;-73
2022/03/25 12:25:44;;;;;;;30.50;16.73;;;;;;;;;;5082482;28;20032;-73
2022/03/25 12:28:11;;;;;;;28.13;15.85;;;;;;;;;;5084931;28;20035;-73
2022/03/25 12:30:37;;;;;;;32.55;16.30;;;;;;;;;;5082203;28;20581;-73
2022/03/25 12:33:07;;;;;;;33.60;16.52;;;;;;;;;;5082670;28;20020;-72
2022/03/25 12:35:34;;;;;;;34.28;16.13;;;;;;;;;;5082011;28;20036;-73
2022/03/25 12:38:06;;;;;;;26.95;15.00;;;;;;;;;;5079921;28;20028;-74
2022/03/25 12:40:35;;;;;;;34.10;17.00;;;;;;;;;;5081023;28;20024;-73
2022/03/25 12:43:01;;;;;;;23.92;15.73;;;;;;;;;;5083120;28;20031;-74
2022/03/25 12:45:37;;;;;;;27.77;16.08;;;;;;;;;;5083606;28;20099;-74
2022/03/25 12:48:14;;;;;;;31.42;16.20;;;;;;;;;;5074748;28;20035;-73
2022/03/25 12:51:02;;;;;;;35.63;16.83;;;;;;;;;;5088186;28;20108;-74
2022/03/25 12:53:29;;;;;;;29.73;16.15;;;;;;;;;;5085434;28;20031;-73
2022/03/25 12:55:55;;;;;;;32.05;16.15;;;;;;;;;;5086113;28;20034;-73
2022/03/25 12:58:22;;;;;;;25.77;14.63;;;;;;;;;;5084568;28;20064;-72
2022/03/25 13:00:50;;;;;;;24.05;15.07;;;;;;;;;;5084498;28;20032;-72
2022/03/25 13:03:17;;;;;;;29.45;15.10;;;;;;;;;;5083164;28;20028;-72
2022/03/25 13:05:44;;;;;;;26.38;15.15;;;;;;;;;;5083434;28;20101;-72
2022/03/25 13:08:10;;;;;;;29.98;15.68;;;;;;;;;;5074347;28;20048;-72
2022/03/25 13:10:37;;;;;;;29.73;15.93;;;;;;;;;;5069378;28;20028;-75
2022/03/25 13:13:04;;;;;;;29.60;16.42;;;;;;;;;;5074677;28;20028;-74
2022/03/25 13:15:37;;;;;;;27.33;16.75;;;;;;;;;;5074883;28;20028;-73
2022/03/25 13:18:07;;;;;;;28.40;16.45;;;;;;;;;;5075338;28;20044;-74
2022/03/25 13:20:34;;;;;;;28.13;16.10;;;;;;;;;;5079216;28;20032;-75
2022/03/25 13:23:14;;;;;;;25.90;15.95;;;;;;;;;;5073767;28;20124;-75
2022/03/25 13:25:41;;;;;;;24.48;15.48;;;;;;;;;;5077996;28;20216;-74
2022/03/25 13:28:08;;;;;;;25.10;15.38;;;;;;;;;;5069850;28;20027;-71
2022/03/25 13:30:34;;;;;;;25.98;16.75;;;;;;;;;;5073265;28;20016;-74
2022/03/25 13:33:02;;;;;;;32.20;16.92;;;;;;;;;;5073311;28;20028;-73
2022/03/25 13:35:32;;;;;;;35.42;16.88;;;;;;;;;;5071645;28;20028;-73
2022/03/25 13:38:02;;;;;;;24.83;15.90;;;;;;;;;;5072112;28;20025;-73
2022/03/25 13:40:40;;;;;;;29.73;16.95;;;;;;;;;;5071997;28;20377;-74
2022/03/25 13:43:08;;;;;;;25.80;16.35;;;;;;;;;;5074336;28;20066;-73
2022/03/25 13:45:34;;;;;;;26.25;17.40;;;;;;;;;;5076799;28;20031;-73
2022/03/25 13:48:00;;;;;;;28.88;15.63;;;;;;;;;;5079234;28;20028;-71
2022/03/25 13:50:26;;;;;;;29.90;15.73;;;;;;;;;;5071842;28;20051;-71
2022/03/25 13:53:12;;;;;;;31.45;17.75;;;;;;;;;;5078321;28;20632;-71
2022/03/25 13:55:39;;;;;;;30.23;16.27;;;;;;;;;;5074140;28;20035;-71
2022/03/25 13:58:11;;;;;;;26.35;16.85;;;;;;;;;;5078426;28;20028;-72
2022/03/25 14:00:39;;;;;;;28.70;16.77;;;;;;;;;;5080297;28;20047;-73
2022/03/25 14:03:05;;;;;;;27.63;16.52;;;;;;;;;;5072660;28;20086;-72
2022/03/25 14:05:32;;;;;;;26.65;15.73;;;;;;;;;;5076653;28;20425;-72
2022/03/25 14:07:59;;;;;;;24.38;15.80;;;;;;;;;;5077646;28;20036;-73
2022/03/25 14:10:25;;;;;;;25.33;15.43;;;;;;;;;;5078772;28;20027;-72
2022/03/25 14:12:58;;;;;;;26.80;15.65;;;;;;;;;;5077863;28;20535;-73
2022/03/25 14:15:26;;;;;;;26.25;15.45;;;;;;;;;;5079780;28;20032;-73
2022/03/25 14:17:52;;;;;;;29.02;14.50;;;;;;;;;;5075211;28;20086;-71
2022/03/25 14:20:19;;;;;;;31.70;15.07;;;;;;;;;;5078930;28;20035;-72
2022/03/25 14:22:46;;;;;;;28.85;15.02;;;;;;;;;;5073680;28;20108;-72